Time;durP1;ratioP1;P1;durP2;ratioP2;P2;SDS_P1;SDS_P2;PMS_P1;PMS_P2;Temp;Humidity;BMP_temperature;BMP_pressure;BME280_temperature;BME280_humidity;BME280_pressure;Samples;Min_cycle;Max_cycle;Signal;HPM_P1;HPM_P2
2023/06/11 00:00:44;;;;;;;7.97;6.90;;;15.20;91.40;;;;;;2103840;28;20320;-64
2023/06/11 00:01:45;;;;;;;8.07;6.80;;;15.10;91.30;;;;;;2103205;28;20218;-64
2023/06/11 00:02:46;;;;;;;7.07;6.37;;;15.10;91.30;;;;;;2104280;28;20659;-64
2023/06/11 00:03:52;;;;;;;9.17;7.30;;;15.10;91.30;;;;;;2100630;28;20231;-63
2023/06/11 00:04:52;;;;;;;7.53;6.60;;;15.10;91.50;;;;;;2100711;28;20628;-63
2023/06/11 00:05:53;;;;;;;8.27;7.27;;;15.10;91.60;;;;;;2103286;28;20230;-63
2023/06/11 00:06:56;;;;;;;7.33;6.10;;;15.00;92.30;;;;;;2103766;28;20716;-63
2023/06/11 00:08:00;;;;;;;8.15;6.68;;;14.90;92.20;;;;;;2104013;28;20576;-63
2023/06/11 00:09:01;;;;;;;7.60;6.80;;;15.00;92.20;;;;;;2099617;28;20219;-65
2023/06/11 00:10:03;;;;;;;7.87;6.90;;;15.00;92.20;;;;;;2104098;28;20523;-64
2023/06/11 00:11:03;;;;;;;8.32;7.53;;;14.90;92.40;;;;;;2102733;28;20550;-64
2023/06/11 00:12:05;;;;;;;8.17;7.00;;;14.90;92.50;;;;;;2103808;28;20201;-63
2023/06/11 00:13:06;;;;;;;9.30;6.88;;;14.90;92.70;;;;;;2103950;28;20190;-65
2023/06/11 00:14:06;;;;;;;7.93;7.03;;;14.90;92.60;;;;;;2104957;28;20198;-63
2023/06/11 00:15:08;;;;;;;7.77;7.00;;;14.90;92.60;;;;;;2100439;28;20203;-63
2023/06/11 00:16:09;;;;;;;8.07;6.85;;;14.90;92.70;;;;;;2102324;28;20207;-63
2023/06/11 00:17:11;;;;;;;7.80;7.00;;;14.90;92.90;;;;;;2103675;28;20229;-63
2023/06/11 00:18:12;;;;;;;7.65;6.85;;;14.80;93.50;;;;;;2095946;28;20211;-67
2023/06/11 00:19:14;;;;;;;7.97;7.17;;;14.70;93.20;;;;;;2103871;28;20252;-64
2023/06/11 00:20:16;;;;;;;8.30;7.38;;;14.80;93.80;;;;;;2102431;28;20222;-62
2023/06/11 00:21:16;;;;;;;7.88;7.07;;;14.80;93.20;;;;;;2102845;28;20179;-63
2023/06/11 00:22:17;;;;;;;8.13;7.33;;;14.80;93.40;;;;;;2100407;28;20182;-63
2023/06/11 00:23:18;;;;;;;7.87;6.90;;;14.70;93.60;;;;;;2103959;28;20207;-63
2023/06/11 00:24:19;;;;;;;8.20;7.40;;;14.70;93.60;;;;;;2103537;28;20454;-64
2023/06/11 00:25:21;;;;;;;8.53;7.50;;;14.70;93.70;;;;;;2103467;28;20183;-63
2023/06/11 00:26:22;;;;;;;8.05;6.88;;;14.70;93.20;;;;;;2099762;28;20749;-63
2023/06/11 00:27:23;;;;;;;7.70;6.60;;;14.70;93.20;;;;;;2103392;28;20226;-63
2023/06/11 00:28:24;;;;;;;7.83;7.03;;;14.70;93.30;;;;;;2103212;28;20230;-63
2023/06/11 00:29:24;;;;;;;7.80;6.93;;;14.70;93.40;;;;;;2104063;28;20780;-62
2023/06/11 00:30:25;;;;;;;8.57;7.23;;;14.70;93.90;;;;;;2103130;28;20219;-63
2023/06/11 00:31:26;;;;;;;8.53;7.20;;;14.70;93.30;;;;;;2101180;28;20229;-64
2023/06/11 00:32:26;;;;;;;8.37;7.13;;;14.70;93.60;;;;;;2102687;28;20245;-63
2023/06/11 00:33:27;;;;;;;9.67;6.80;;;14.70;93.10;;;;;;2101987;28;20275;-63
2023/06/11 00:34:28;;;;;;;7.90;7.10;;;14.70;93.20;;;;;;2102619;28;20299;-63
2023/06/11 00:35:29;;;;;;;8.63;6.67;;;14.70;93.40;;;;;;2100040;28;20701;-64
2023/06/11 00:36:32;;;;;;;7.50;6.80;;;14.70;93.20;;;;;;2098325;28;20227;-63
2023/06/11 00:37:34;;;;;;;7.40;6.60;;;14.70;93.50;;;;;;2097732;28;20228;-64
2023/06/11 00:38:35;;;;;;;7.68;6.63;;;14.70;93.60;;;;;;2102017;28;20313;-63
2023/06/11 00:39:36;;;;;;;7.72;6.47;;;14.70;93.80;;;;;;2103326;28;20242;-64
2023/06/11 00:40:37;;;;;;;7.87;6.43;;;14.70;93.70;;;;;;2103269;28;20242;-63
2023/06/11 00:41:39;;;;;;;8.67;7.10;;;14.60;93.90;;;;;;2103175;28;20312;-63
2023/06/11 00:42:40;;;;;;;8.70;7.07;;;14.60;93.90;;;;;;2095219;28;20299;-64
2023/06/11 00:43:41;;;;;;;8.23;7.30;;;14.60;93.80;;;;;;2094794;28;20270;-64
2023/06/11 00:44:44;;;;;;;7.43;6.72;;;14.70;94.00;;;;;;2094927;28;20231;-63
2023/06/11 00:45:45;;;;;;;7.53;6.72;;;14.60;94.10;;;;;;2100466;28;20226;-64
2023/06/11 00:46:47;;;;;;;8.10;6.97;;;14.60;94.00;;;;;;2099241;28;20255;-63
2023/06/11 00:47:48;;;;;;;8.50;7.05;;;14.60;94.10;;;;;;2099634;28;20257;-63
2023/06/11 00:48:50;;;;;;;8.32;7.20;;;14.50;94.30;;;;;;2096540;28;20265;-63
2023/06/11 00:49:52;;;;;;;8.32;7.38;;;14.50;94.30;;;;;;2102214;28;20307;-64
2023/06/11 00:50:54;;;;;;;8.20;7.32;;;14.50;94.40;;;;;;2095116;28;20725;-63
2023/06/11 00:51:54;;;;;;;7.93;6.78;;;14.50;94.40;;;;;;2103534;28;20231;-63
2023/06/11 00:52:55;;;;;;;7.90;7.10;;;14.50;94.50;;;;;;2100120;28;20257;-64
2023/06/11 00:53:56;;;;;;;8.33;7.53;;;14.50;94.60;;;;;;2099824;28;20474;-63
2023/06/11 00:54:57;;;;;;;7.63;6.83;;;14.50;94.60;;;;;;2103474;28;20750;-63
2023/06/11 00:55:57;;;;;;;9.63;6.73;;;14.50;94.60;;;;;;2095635;28;20238;-63
2023/06/11 00:56:58;;;;;;;9.73;7.13;;;14.50;94.50;;;;;;2105227;28;20362;-63
2023/06/11 00:57:59;;;;;;;7.70;6.60;;;14.40;94.60;;;;;;2101186;28;20238;-64
2023/06/11 00:59:00;;;;;;;8.10;6.80;;;14.40;94.70;;;;;;2095229;28;20224;-64
2023/06/11 01:00:03;;;;;;;9.63;6.47;;;14.40;94.70;;;;;;2102319;28;20300;-64
2023/06/11 01:01:05;;;;;;;8.13;7.13;;;14.40;94.60;;;;;;2099051;28;20186;-64
2023/06/11 01:02:17;;;;;;;7.43;6.63;;;14.40;94.70;;;;;;2091075;28;20265;-64
2023/06/11 01:03:22;;;;;;;8.73;7.05;;;14.50;94.80;;;;;;2093154;28;20700;-63
2023/06/11 01:04:26;;;;;;;10.60;6.63;;;14.40;94.60;;;;;;2095587;28;20227;-64
2023/06/11 01:05:31;;;;;;;11.23;7.50;;;14.40;94.40;;;;;;2086952;28;20647;-64
2023/06/11 01:06:34;;;;;;;8.52;6.72;;;14.30;94.50;;;;;;2078831;28;20341;-63
2023/06/11 01:07:41;;;;;;;9.13;6.95;;;14.30;94.50;;;;;;2080163;28;20216;-63
2023/06/11 01:08:41;;;;;;;10.65;7.32;;;14.40;94.40;;;;;;2099399;28;20321;-63
2023/06/11 01:09:44;;;;;;;7.60;6.73;;;14.30;94.10;;;;;;2096050;28;20223;-63
2023/06/11 01:10:47;;;;;;;7.68;6.47;;;14.30;94.00;;;;;;2102327;28;20229;-63
2023/06/11 01:11:53;;;;;;;8.05;7.18;;;14.20;94.60;;;;;;2103819;28;20709;-63
2023/06/11 01:12:54;;;;;;;8.50;7.07;;;14.20;94.80;;;;;;2099713;28;20223;-63
2023/06/11 01:13:55;;;;;;;7.40;6.60;;;14.20;95.00;;;;;;2103734;28;20226;-62
2023/06/11 01:14:56;;;;;;;8.80;6.70;;;14.20;95.00;;;;;;2098808;28;21002;-63
2023/06/11 01:16:10;;;;;;;8.95;7.35;;;14.20;94.90;;;;;;2100101;28;20310;-63
2023/06/11 01:17:29;;;;;;;9.52;6.90;;;14.20;94.90;;;;;;2102101;28;20229;-63
2023/06/11 01:18:39;;;;;;;7.97;6.70;;;14.20;95.00;;;;;;2097261;28;20263;-64
2023/06/11 01:19:54;;;;;;;11.13;6.68;;;14.10;95.00;;;;;;2090653;28;20602;-63
2023/06/11 01:21:13;;;;;;;7.28;6.15;;;14.10;95.10;;;;;;2078090;28;20610;-63
2023/06/11 01:22:29;;;;;;;7.22;5.85;;;14.10;94.90;;;;;;2083428;28;20224;-63
2023/06/11 01:23:46;;;;;;;8.18;6.18;;;14.00;95.00;;;;;;2096700;28;20293;-63
2023/06/11 01:25:29;;;;;;;8.25;6.40;;;13.90;95.10;;;;;;2097193;28;20235;-66
2023/06/11 01:27:04;;;;;;;8.10;6.70;;;14.00;95.20;;;;;;2101814;28;20226;-63
2023/06/11 01:28:10;;;;;;;7.63;6.25;;;13.90;95.50;;;;;;2090884;28;20239;-64
2023/06/11 01:29:15;;;;;;;8.60;6.90;;;13.90;95.60;;;;;;2093244;28;20184;-61
2023/06/11 01:30:20;;;;;;;7.63;6.38;;;13.90;96.00;;;;;;2090103;28;20182;-63
2023/06/11 01:31:22;;;;;;;7.28;6.57;;;13.80;96.30;;;;;;2087412;28;20232;-62
2023/06/11 01:32:27;;;;;;;8.52;6.85;;;13.80;96.70;;;;;;2079645;28;20298;-63
2023/06/11 01:33:28;;;;;;;8.50;7.15;;;13.70;97.00;;;;;;2090862;28;20235;-63
2023/06/11 01:34:31;;;;;;;7.50;6.33;;;13.70;96.90;;;;;;2094892;28;20672;-63
2023/06/11 01:35:33;;;;;;;7.70;6.60;;;13.80;96.90;;;;;;2093556;28;20740;-63
2023/06/11 01:36:36;;;;;;;8.18;6.68;;;13.80;96.90;;;;;;2094514;28;20235;-62
2023/06/11 01:37:37;;;;;;;7.95;7.15;;;13.80;96.90;;;;;;2086654;28;20625;-63
2023/06/11 01:38:41;;;;;;;9.10;7.03;;;13.80;96.90;;;;;;2100413;28;20226;-63
2023/06/11 01:39:47;;;;;;;8.23;6.38;;;13.70;97.40;;;;;;2103845;28;20235;-63
2023/06/11 01:40:48;;;;;;;7.50;6.55;;;13.70;97.30;;;;;;2102706;28;20253;-62
2023/06/11 01:41:49;;;;;;;8.05;7.07;;;13.80;97.20;;;;;;2102286;28;20230;-64
2023/06/11 01:42:50;;;;;;;9.57;7.30;;;13.80;97.20;;;;;;2103875;28;20227;-64
2023/06/11 01:43:51;;;;;;;10.50;7.15;;;13.80;96.90;;;;;;2092328;28;20317;-63
2023/06/11 01:44:51;;;;;;;9.73;7.03;;;13.90;96.80;;;;;;2095004;28;20616;-63
2023/06/11 01:45:52;;;;;;;10.03;8.20;;;13.80;96.80;;;;;;2086510;28;20334;-62
2023/06/11 01:46:53;;;;;;;7.97;7.17;;;13.80;97.00;;;;;;2102666;28;20226;-63
2023/06/11 01:47:54;;;;;;;9.83;7.73;;;13.90;96.90;;;;;;2092134;28;20235;-63
2023/06/11 01:48:56;;;;;;;7.63;6.93;;;13.90;97.10;;;;;;2092165;28;20232;-64
2023/06/11 01:49:59;;;;;;;7.82;7.03;;;13.80;97.30;;;;;;2110650;28;20226;-63
2023/06/11 01:51:00;;;;;;;8.02;7.05;;;13.80;97.40;;;;;;2107729;28;20259;-63
2023/06/11 01:52:00;;;;;;;8.67;7.77;;;13.80;97.40;;;;;;2090428;28;20219;-66
2023/06/11 01:53:01;;;;;;;9.47;7.43;;;13.80;97.20;;;;;;2091288;28;20195;-65
2023/06/11 01:54:02;;;;;;;8.27;6.63;;;13.80;97.10;;;;;;2091479;28;20195;-64
2023/06/11 01:55:03;;;;;;;7.60;6.80;;;13.80;97.10;;;;;;2103311;28;20268;-63
2023/06/11 01:56:04;;;;;;;8.75;7.28;;;13.80;97.20;;;;;;2091767;28;20180;-63
2023/06/11 01:57:06;;;;;;;9.40;8.40;;;13.80;97.50;;;;;;2098785;28;20642;-63
2023/06/11 01:58:07;;;;;;;9.18;7.07;;;13.80;97.80;;;;;;2094306;28;20223;-63
2023/06/11 01:59:07;;;;;;;9.27;7.80;;;13.70;97.90;;;;;;2095065;28;20207;-63
2023/06/11 02:00:09;;;;;;;8.13;7.33;;;13.70;97.80;;;;;;2095019;28;20713;-63
2023/06/11 02:01:10;;;;;;;8.50;7.30;;;13.70;97.80;;;;;;2102654;28;20183;-63
2023/06/11 02:02:11;;;;;;;7.73;6.80;;;13.80;97.60;;;;;;2103641;28;20197;-64
2023/06/11 02:03:12;;;;;;;8.83;7.13;;;13.80;97.80;;;;;;2103704;28;20183;-63
2023/06/11 02:04:13;;;;;;;8.18;7.10;;;13.70;97.40;;;;;;2101228;28;20183;-63
2023/06/11 02:05:15;;;;;;;8.53;7.60;;;13.70;97.00;;;;;;2093967;28;20650;-63
2023/06/11 02:06:16;;;;;;;8.30;7.22;;;13.60;97.30;;;;;;2101917;28;20186;-62
2023/06/11 02:07:16;;;;;;;8.83;7.93;;;13.50;97.70;;;;;;2102111;28;20571;-62
2023/06/11 02:08:17;;;;;;;8.37;7.47;;;13.50;98.00;;;;;;2100629;28;20230;-63
2023/06/11 02:09:18;;;;;;;7.67;6.77;;;13.50;98.00;;;;;;2102673;28;20851;-63
2023/06/11 02:10:18;;;;;;;8.03;7.23;;;13.50;97.90;;;;;;2103173;28;20191;-63
2023/06/11 02:11:19;;;;;;;7.93;6.47;;;13.50;97.70;;;;;;2103237;28;20171;-63
2023/06/11 02:12:20;;;;;;;7.67;6.10;;;13.50;97.60;;;;;;2103357;28;20243;-63
2023/06/11 02:13:21;;;;;;;8.27;7.37;;;13.50;97.80;;;;;;2102991;28;20230;-63
2023/06/11 02:14:21;;;;;;;9.77;7.30;;;13.50;97.60;;;;;;2102935;28;20241;-63
2023/06/11 02:15:22;;;;;;;8.70;7.37;;;13.50;97.40;;;;;;2094564;28;20231;-62
2023/06/11 02:16:22;;;;;;;8.60;7.10;;;13.50;97.50;;;;;;2094992;28;20231;-63
2023/06/11 02:17:23;;;;;;;7.90;6.67;;;13.50;97.80;;;;;;2103008;28;20917;-63
2023/06/11 02:18:24;;;;;;;9.20;7.60;;;13.50;98.10;;;;;;2103524;28;20234;-62
2023/06/11 02:19:25;;;;;;;8.35;7.40;;;13.40;98.00;;;;;;2099443;28;20262;-63
2023/06/11 02:20:26;;;;;;;8.93;7.40;;;13.40;97.90;;;;;;2094704;28;20246;-63
2023/06/11 02:21:26;;;;;;;10.60;8.03;;;13.40;97.90;;;;;;2103170;28;20223;-62
2023/06/11 02:22:27;;;;;;;9.47;7.87;;;13.40;97.60;;;;;;2103625;28;20227;-63
2023/06/11 02:23:29;;;;;;;8.13;7.20;;;13.40;97.50;;;;;;2101862;28;20234;-63
2023/06/11 02:24:29;;;;;;;7.35;6.65;;;13.40;97.60;;;;;;2103047;28;20695;-63
2023/06/11 02:25:30;;;;;;;8.80;6.87;;;13.30;98.40;;;;;;2103353;28;20284;-63
2023/06/11 02:26:31;;;;;;;7.60;6.83;;;13.20;98.40;;;;;;2102229;28;20226;-63
2023/06/11 02:27:32;;;;;;;7.70;6.63;;;13.20;98.50;;;;;;2102114;28;20732;-63
2023/06/11 02:28:32;;;;;;;8.73;7.18;;;13.20;98.60;;;;;;2103864;28;20323;-63
2023/06/11 02:29:33;;;;;;;8.37;7.00;;;13.20;98.40;;;;;;2101616;28;20304;-63
2023/06/11 02:30:34;;;;;;;8.27;7.37;;;13.20;98.30;;;;;;2101965;28;20276;-63
2023/06/11 02:31:35;;;;;;;8.50;7.60;;;13.30;98.20;;;;;;2108637;28;20270;-63
2023/06/11 02:32:36;;;;;;;8.70;7.23;;;13.20;98.20;;;;;;2108767;28;20609;-63
2023/06/11 02:33:36;;;;;;;8.63;6.95;;;13.30;98.00;;;;;;2097266;28;20580;-63
2023/06/11 02:34:40;;;;;;;7.97;7.03;;;13.30;97.90;;;;;;2104989;28;20244;-61
2023/06/11 02:35:41;;;;;;;8.45;6.80;;;13.30;97.90;;;;;;2098476;28;20231;-63
2023/06/11 02:36:41;;;;;;;8.83;7.40;;;13.20;97.70;;;;;;2100173;28;20238;-63
2023/06/11 02:37:42;;;;;;;8.50;7.37;;;13.20;98.40;;;;;;2106222;28;20754;-63
2023/06/11 02:38:43;;;;;;;10.57;7.87;;;13.10;99.00;;;;;;2105947;28;20227;-61
2023/06/11 02:39:43;;;;;;;9.33;7.57;;;13.10;99.60;;;;;;2105703;28;20235;-63
2023/06/11 02:40:44;;;;;;;7.80;6.80;;;13.10;99.40;;;;;;2107213;28;20233;-63
2023/06/11 02:41:45;;;;;;;8.57;7.30;;;13.10;99.50;;;;;;2100003;28;20254;-62
2023/06/11 02:42:46;;;;;;;8.03;7.10;;;13.10;99.30;;;;;;2096383;28;20227;-63
2023/06/11 02:43:46;;;;;;;8.23;6.47;;;13.10;99.10;;;;;;2104988;28;20230;-62
2023/06/11 02:44:47;;;;;;;9.73;7.07;;;13.10;99.00;;;;;;2108836;28;20230;-62
2023/06/11 02:45:48;;;;;;;7.93;6.97;;;13.10;98.90;;;;;;2108640;28;20230;-62
2023/06/11 02:46:49;;;;;;;9.30;7.13;;;13.10;98.80;;;;;;2096863;28;20724;-63
2023/06/11 02:47:51;;;;;;;7.90;6.85;;;13.10;99.10;;;;;;2103571;28;20241;-62
2023/06/11 02:48:52;;;;;;;9.93;7.35;;;13.00;99.10;;;;;;2100148;28;20227;-62
2023/06/11 02:49:52;;;;;;;8.47;7.50;;;13.00;99.50;;;;;;2087908;28;20255;-62
2023/06/11 02:50:53;;;;;;;8.03;6.93;;;13.00;99.70;;;;;;2078086;28;20315;-63
2023/06/11 02:51:54;;;;;;;9.83;8.83;;;13.00;99.60;;;;;;2086675;28;20251;-63
2023/06/11 02:52:56;;;;;;;10.33;8.63;;;13.00;99.60;;;;;;2095036;28;20246;-62
2023/06/11 02:53:57;;;;;;;8.63;7.32;;;13.10;99.40;;;;;;2093129;28;20227;-62
2023/06/11 02:54:57;;;;;;;9.83;7.93;;;13.10;99.30;;;;;;2092972;28;20314;-62
2023/06/11 02:55:58;;;;;;;9.50;7.63;;;13.10;99.60;;;;;;2093154;28;20224;-62
2023/06/11 02:56:59;;;;;;;10.20;8.27;;;13.10;99.80;;;;;;2092862;28;20594;-63
2023/06/11 02:58:01;;;;;;;9.23;8.17;;;13.10;99.90;;;;;;2103314;28;20230;-62
2023/06/11 02:59:02;;;;;;;9.77;8.05;;;13.10;99.80;;;;;;2101784;28;20305;-63
2023/06/11 03:00:03;;;;;;;9.63;7.63;;;13.10;99.70;;;;;;2092324;28;20187;-63
2023/06/11 03:01:04;;;;;;;9.57;7.97;;;13.10;99.90;;;;;;2091978;28;20192;-63
2023/06/11 03:02:05;;;;;;;11.17;8.03;;;13.10;99.80;;;;;;2091016;28;20645;-63
2023/06/11 03:03:06;;;;;;;8.45;7.43;;;13.10;99.60;;;;;;2082793;28;20193;-63
2023/06/11 03:04:07;;;;;;;10.43;7.20;;;13.10;99.40;;;;;;2090597;28;20188;-63
2023/06/11 03:05:08;;;;;;;8.40;6.93;;;13.10;99.10;;;;;;2093991;28;20234;-63
2023/06/11 03:06:10;;;;;;;7.82;6.38;;;13.00;99.00;;;;;;2086795;28;20259;-62
2023/06/11 03:07:11;;;;;;;7.53;6.75;;;12.90;99.10;;;;;;2097408;28;20188;-63
2023/06/11 03:08:11;;;;;;;8.47;7.10;;;12.90;99.00;;;;;;2093479;28;20207;-63
2023/06/11 03:09:12;;;;;;;9.23;7.27;;;12.90;98.90;;;;;;2095065;28;20301;-63
2023/06/11 03:10:13;;;;;;;7.87;6.60;;;13.00;98.70;;;;;;2086512;28;20192;-62
2023/06/11 03:11:15;;;;;;;8.07;6.57;;;12.90;99.00;;;;;;2093714;28;20196;-63
2023/06/11 03:12:16;;;;;;;8.98;6.90;;;13.00;98.60;;;;;;2095143;28;20286;-62
2023/06/11 03:13:16;;;;;;;8.40;7.50;;;12.90;98.80;;;;;;2094693;28;20192;-63
2023/06/11 03:14:17;;;;;;;9.23;7.77;;;12.80;98.90;;;;;;2094730;28;20425;-62
2023/06/11 03:15:18;;;;;;;8.80;7.10;;;12.80;99.40;;;;;;2094467;28;20313;-62
2023/06/11 03:16:18;;;;;;;8.83;7.30;;;12.70;99.50;;;;;;2094908;28;20234;-63
2023/06/11 03:17:19;;;;;;;10.63;7.70;;;12.80;99.50;;;;;;2095636;28;20187;-63
2023/06/11 03:18:20;;;;;;;8.90;7.32;;;12.70;99.50;;;;;;2092555;28;20223;-63
2023/06/11 03:19:21;;;;;;;9.93;7.50;;;12.70;99.50;;;;;;2095912;28;20251;-62
2023/06/11 03:20:22;;;;;;;9.10;7.30;;;12.80;99.60;;;;;;2094915;28;20239;-63
2023/06/11 03:21:22;;;;;;;9.23;7.67;;;12.80;99.70;;;;;;2094477;28;20231;-63
2023/06/11 03:22:23;;;;;;;9.23;7.10;;;12.80;99.80;;;;;;2092037;28;20300;-62
2023/06/11 03:23:24;;;;;;;9.93;8.00;;;12.80;99.80;;;;;;2095547;28;20231;-63
2023/06/11 03:24:25;;;;;;;9.90;8.00;;;12.70;99.90;;;;;;2099029;28;20272;-63
2023/06/11 03:25:25;;;;;;;9.33;7.40;;;12.80;99.90;;;;;;2099092;28;20234;-63
2023/06/11 03:26:27;;;;;;;9.30;7.13;;;12.80;99.90;;;;;;2096219;28;20273;-63
2023/06/11 03:27:28;;;;;;;9.75;7.40;;;12.80;99.90;;;;;;2095224;28;20238;-63
2023/06/11 03:28:29;;;;;;;9.33;7.57;;;12.80;99.90;;;;;;2094242;28;20853;-63
2023/06/11 03:29:30;;;;;;;11.33;8.40;;;12.80;99.90;;;;;;2096738;28;20228;-62
2023/06/11 03:30:31;;;;;;;8.68;7.22;;;12.80;99.90;;;;;;2096805;28;20360;-64
2023/06/11 03:31:31;;;;;;;9.00;8.10;;;12.90;99.90;;;;;;2094172;28;20231;-63
2023/06/11 03:32:32;;;;;;;9.47;7.33;;;12.90;99.90;;;;;;2093380;28;20331;-64
2023/06/11 03:33:33;;;;;;;7.60;6.73;;;12.90;99.90;;;;;;2087657;28;20637;-63
2023/06/11 03:34:33;;;;;;;8.83;7.27;;;12.90;99.90;;;;;;2087749;28;20360;-62
2023/06/11 03:35:34;;;;;;;9.00;7.13;;;12.90;99.90;;;;;;2095541;28;20234;-64
2023/06/11 03:36:36;;;;;;;8.37;7.43;;;12.90;99.90;;;;;;2092896;28;20443;-64
2023/06/11 03:37:36;;;;;;;9.70;7.82;;;13.00;99.90;;;;;;2093432;28;20239;-63
2023/06/11 03:38:37;;;;;;;9.40;7.60;;;13.00;99.90;;;;;;2096114;28;20231;-63
2023/06/11 03:39:38;;;;;;;8.43;7.13;;;13.10;99.90;;;;;;2096039;28;20713;-63
2023/06/11 03:40:39;;;;;;;10.00;7.67;;;13.10;99.60;;;;;;2090902;28;20240;-64
2023/06/11 03:41:39;;;;;;;8.67;6.73;;;13.10;99.40;;;;;;2095511;28;20223;-62
2023/06/11 03:42:40;;;;;;;9.17;7.10;;;13.00;99.00;;;;;;2100084;28;20288;-64
2023/06/11 03:43:41;;;;;;;7.97;6.90;;;13.00;98.70;;;;;;2091795;28;20317;-63
2023/06/11 03:44:42;;;;;;;7.47;6.23;;;13.00;98.80;;;;;;2095745;28;20229;-63
2023/06/11 03:45:43;;;;;;;7.93;6.95;;;13.00;98.90;;;;;;2095645;28;20297;-63
2023/06/11 03:46:43;;;;;;;8.30;7.43;;;12.90;99.10;;;;;;2104677;28;20352;-64
2023/06/11 03:47:44;;;;;;;8.10;6.53;;;12.90;99.50;;;;;;2104678;28;20234;-63
2023/06/11 03:48:45;;;;;;;8.37;6.90;;;12.90;99.40;;;;;;2104613;28;20292;-64
2023/06/11 03:49:45;;;;;;;7.23;6.50;;;12.80;99.60;;;;;;2104866;28;20253;-62
2023/06/11 03:50:46;;;;;;;9.97;6.70;;;12.80;99.80;;;;;;2104322;28;20226;-62
2023/06/11 03:51:47;;;;;;;11.20;7.40;;;12.80;99.60;;;;;;2105074;28;20250;-63
2023/06/11 03:52:48;;;;;;;8.10;7.13;;;12.80;99.60;;;;;;2104436;28;20226;-63
2023/06/11 03:53:48;;;;;;;8.83;6.83;;;12.80;99.50;;;;;;2104025;28;20756;-64
2023/06/11 03:54:49;;;;;;;8.67;6.80;;;12.80;99.60;;;;;;2104176;28;20678;-64
2023/06/11 03:55:50;;;;;;;8.80;7.40;;;12.70;99.50;;;;;;2104897;28;20341;-63
2023/06/11 03:56:50;;;;;;;8.27;6.83;;;12.70;99.80;;;;;;2103965;28;20621;-64
2023/06/11 03:57:51;;;;;;;9.20;8.20;;;12.70;99.90;;;;;;2104882;28;20233;-64
2023/06/11 03:58:52;;;;;;;7.73;7.00;;;12.70;99.90;;;;;;2112634;28;20249;-63
2023/06/11 03:59:52;;;;;;;8.53;6.90;;;12.70;99.90;;;;;;2102842;28;20697;-64
2023/06/11 04:00:54;;;;;;;9.43;7.83;;;12.60;99.90;;;;;;2102212;28;20234;-64
2023/06/11 04:01:55;;;;;;;7.88;6.95;;;12.60;99.90;;;;;;2093719;28;20718;-64
2023/06/11 04:02:56;;;;;;;8.40;7.50;;;12.60;99.90;;;;;;2093240;28;20281;-63
2023/06/11 04:03:57;;;;;;;8.03;7.23;;;12.70;99.90;;;;;;2102008;28;20316;-63
2023/06/11 04:04:58;;;;;;;7.75;6.43;;;12.70;99.90;;;;;;2103451;28;20314;-62
2023/06/11 04:06:00;;;;;;;9.13;7.00;;;12.70;99.90;;;;;;2100134;28;20594;-63
2023/06/11 04:07:00;;;;;;;9.77;7.70;;;12.70;99.90;;;;;;2101639;28;20281;-63
2023/06/11 04:08:01;;;;;;;8.00;7.10;;;12.70;99.90;;;;;;2099337;28;20633;-64
2023/06/11 04:09:02;;;;;;;9.10;7.23;;;12.80;99.90;;;;;;2100542;28;20191;-63
2023/06/11 04:10:03;;;;;;;9.57;7.53;;;12.80;99.90;;;;;;2105042;28;20671;-64
2023/06/11 04:11:04;;;;;;;10.20;8.05;;;12.80;99.90;;;;;;2104447;28;20430;-63
2023/06/11 04:12:05;;;;;;;8.50;7.20;;;12.80;99.90;;;;;;2104342;28;20210;-64
2023/06/11 04:13:06;;;;;;;9.10;7.70;;;12.90;99.90;;;;;;2100343;28;20199;-64
2023/06/11 04:14:07;;;;;;;8.57;7.33;;;12.90;99.90;;;;;;2103869;28;20194;-64
2023/06/11 04:15:08;;;;;;;9.30;7.23;;;13.00;99.90;;;;;;2095432;28;20270;-64
2023/06/11 04:16:09;;;;;;;9.45;6.97;;;13.00;99.90;;;;;;2104331;28;20183;-64
2023/06/11 04:17:10;;;;;;;9.03;7.30;;;13.10;99.90;;;;;;2104099;28;20212;-64
2023/06/11 04:18:11;;;;;;;8.53;7.23;;;13.00;99.90;;;;;;2102792;28;20216;-64
2023/06/11 04:19:12;;;;;;;8.80;7.28;;;13.00;99.90;;;;;;2099886;28;20301;-65
2023/06/11 04:20:13;;;;;;;8.68;7.38;;;13.10;99.90;;;;;;2102949;28;20646;-63
2023/06/11 04:21:14;;;;;;;10.83;7.57;;;13.10;99.90;;;;;;2104685;28;20217;-64
2023/06/11 04:22:15;;;;;;;7.70;6.72;;;13.20;99.90;;;;;;2103751;28;20237;-64
2023/06/11 04:23:15;;;;;;;9.33;7.10;;;13.20;99.70;;;;;;2096003;28;20624;-64
2023/06/11 04:24:16;;;;;;;9.05;7.75;;;13.20;99.70;;;;;;2104188;28;20174;-64
2023/06/11 04:25:17;;;;;;;8.93;8.03;;;13.20;99.80;;;;;;2104298;28;20217;-64
2023/06/11 04:26:20;;;;;;;7.97;6.90;;;13.30;99.50;;;;;;2101604;28;20205;-64
2023/06/11 04:27:21;;;;;;;8.10;7.28;;;13.30;99.40;;;;;;2101641;28;20234;-64
2023/06/11 04:28:23;;;;;;;8.07;7.03;;;13.30;99.20;;;;;;2101589;28;20222;-63
2023/06/11 04:29:29;;;;;;;8.65;7.85;;;13.30;99.10;;;;;;2100585;28;20229;-66
2023/06/11 04:30:31;;;;;;;9.45;7.85;;;13.30;99.10;;;;;;2085229;28;20561;-63
2023/06/11 04:31:32;;;;;;;8.82;7.30;;;13.30;99.10;;;;;;2095696;28;20259;-64
2023/06/11 04:32:34;;;;;;;8.23;7.20;;;13.40;99.20;;;;;;2100483;28;20231;-63
2023/06/11 04:33:36;;;;;;;9.65;7.82;;;13.40;99.00;;;;;;2101619;28;20463;-64
2023/06/11 04:34:37;;;;;;;9.07;7.38;;;13.40;99.00;;;;;;2104151;28;20238;-64
2023/06/11 04:35:38;;;;;;;8.52;7.60;;;13.50;98.80;;;;;;2102623;28;20250;-64
2023/06/11 04:36:41;;;;;;;10.40;7.40;;;13.50;98.70;;;;;;2100894;28;20223;-64
2023/06/11 04:37:43;;;;;;;8.32;6.85;;;13.50;98.60;;;;;;2104111;28;20214;-65
2023/06/11 04:38:44;;;;;;;8.18;7.35;;;13.50;98.20;;;;;;2094697;28;20272;-64
2023/06/11 04:39:45;;;;;;;7.60;6.80;;;13.60;98.20;;;;;;2103411;28;20235;-63
2023/06/11 04:40:46;;;;;;;8.88;7.45;;;13.50;98.30;;;;;;2104337;28;20237;-64
2023/06/11 04:41:47;;;;;;;9.80;7.57;;;13.40;98.90;;;;;;2103708;28;20596;-64
2023/06/11 04:42:48;;;;;;;8.50;7.60;;;13.40;99.60;;;;;;2103193;28;20226;-64
2023/06/11 04:43:49;;;;;;;10.27;7.53;;;13.40;99.80;;;;;;2103226;28;20233;-66
2023/06/11 04:44:50;;;;;;;9.18;7.80;;;13.30;99.90;;;;;;2103796;28;20235;-64
2023/06/11 04:45:55;;;;;;;9.18;7.43;;;13.30;99.90;;;;;;2102167;28;20218;-64
2023/06/11 04:46:56;;;;;;;8.70;7.53;;;13.40;99.90;;;;;;2102787;28;20227;-64
2023/06/11 04:47:58;;;;;;;9.50;7.63;;;13.40;99.90;;;;;;2093502;28;20228;-64
2023/06/11 04:49:00;;;;;;;10.40;7.55;;;13.50;99.90;;;;;;2091609;28;21115;-63
2023/06/11 04:50:04;;;;;;;8.82;7.93;;;13.50;99.90;;;;;;2099103;28;20234;-66
2023/06/11 04:51:04;;;;;;;10.25;7.80;;;13.60;99.90;;;;;;2100457;28;20187;-64
2023/06/11 04:52:05;;;;;;;8.67;7.73;;;13.60;99.90;;;;;;2103724;28;20653;-64
2023/06/11 04:53:06;;;;;;;10.00;7.95;;;13.70;99.90;;;;;;2103602;28;20199;-64
2023/06/11 04:54:07;;;;;;;11.77;8.50;;;13.70;99.90;;;;;;2103632;28;20195;-64
2023/06/11 04:55:09;;;;;;;9.23;8.00;;;13.70;99.90;;;;;;2104230;28;20194;-64
2023/06/11 04:56:10;;;;;;;10.10;8.40;;;13.70;99.90;;;;;;2099961;28;20229;-64
2023/06/11 04:57:13;;;;;;;10.03;8.50;;;13.70;99.90;;;;;;2094912;28;21958;-64
2023/06/11 04:58:14;;;;;;;8.95;7.93;;;13.80;99.90;;;;;;2103658;28;20205;-64
2023/06/11 04:59:16;;;;;;;9.90;8.73;;;13.80;99.90;;;;;;2103637;28;20234;-64
2023/06/11 05:00:17;;;;;;;10.95;8.32;;;13.80;99.90;;;;;;2099606;28;20183;-63
2023/06/11 05:01:18;;;;;;;9.27;8.10;;;13.90;99.90;;;;;;2094821;28;20681;-64
2023/06/11 05:02:20;;;;;;;9.73;8.03;;;14.00;99.90;;;;;;2093907;28;20211;-64
2023/06/11 05:03:21;;;;;;;9.57;7.88;;;14.00;99.90;;;;;;2103752;28;20234;-64
2023/06/11 05:04:22;;;;;;;12.45;7.85;;;14.10;99.90;;;;;;2104368;28;20234;-64
2023/06/11 05:05:23;;;;;;;9.53;8.20;;;14.10;99.80;;;;;;2102929;28;20254;-63
2023/06/11 05:06:24;;;;;;;9.40;8.23;;;14.10;99.60;;;;;;2103697;28;20639;-64
2023/06/11 05:07:25;;;;;;;9.95;8.63;;;14.20;99.30;;;;;;2103563;28;20230;-64
2023/06/11 05:08:28;;;;;;;9.93;7.97;;;14.10;99.40;;;;;;2095293;28;20236;-64
2023/06/11 05:09:29;;;;;;;8.63;7.57;;;14.10;99.40;;;;;;2103654;28;20231;-64
2023/06/11 05:10:29;;;;;;;8.90;8.00;;;14.10;99.60;;;;;;2104302;28;20226;-65
2023/06/11 05:11:30;;;;;;;12.17;8.53;;;14.10;99.60;;;;;;2097357;28;20243;-63
2023/06/11 05:12:32;;;;;;;10.45;8.23;;;14.20;99.50;;;;;;2104273;28;20222;-63
2023/06/11 05:13:33;;;;;;;10.60;8.60;;;14.10;99.70;;;;;;2108381;28;20226;-64
2023/06/11 05:14:33;;;;;;;9.17;8.13;;;14.10;99.50;;;;;;2107593;28;20218;-64
2023/06/11 05:15:34;;;;;;;9.70;8.13;;;14.20;99.80;;;;;;2100367;28;20214;-64
2023/06/11 05:16:37;;;;;;;10.37;7.87;;;14.10;99.40;;;;;;2100704;28;20565;-64
2023/06/11 05:17:39;;;;;;;10.57;8.32;;;14.10;99.10;;;;;;2099750;28;20227;-64
2023/06/11 05:18:41;;;;;;;9.50;8.50;;;14.10;99.50;;;;;;2099244;28;20586;-64
2023/06/11 05:19:42;;;;;;;9.32;7.82;;;14.20;99.60;;;;;;2102872;28;20265;-63
2023/06/11 05:20:43;;;;;;;9.82;7.97;;;14.20;99.60;;;;;;2103922;28;20257;-64
2023/06/11 05:21:43;;;;;;;9.47;8.07;;;14.20;99.70;;;;;;2111460;28;20222;-66